createdAt,value
2018-04-06T00:00:13.615Z,98.82
2018-04-06T00:01:07.088Z,98.44
2018-04-06T00:02:07.983Z,98.82
2018-04-06T00:03:07.999Z,98.82
2018-04-06T00:04:07.822Z,99.48
2018-04-06T00:05:08.146Z,99.67
2018-04-06T00:06:07.863Z,99.39
2018-04-06T00:07:07.874Z,99.1
2018-04-06T00:08:08.306Z,99.48
2018-04-06T00:09:08.427Z,99.58
2018-04-06T00:10:08.174Z,99.99
2018-04-06T00:11:08.813Z,99.99
2018-04-06T00:12:08.810Z,99.99
2018-04-06T00:13:08.636Z,99.99
2018-04-06T00:14:08.894Z,99.99
2018-04-06T00:15:08.673Z,99.99
2018-04-06T00:16:08.787Z,99.99
2018-04-06T00:17:09.217Z,99.99
2018-04-06T00:18:09.643Z,99.99
2018-04-06T00:19:09.652Z,99.99
2018-04-06T00:20:09.702Z,99.99
2018-04-06T00:21:09.752Z,99.99
2018-04-06T00:22:09.468Z,99.99
2018-04-06T00:23:09.487Z,99.67
2018-04-06T00:24:09.857Z,99.77
2018-04-06T00:25:10.157Z,99.67
2018-04-06T00:26:10.185Z,99.48
2018-04-06T00:27:28.764Z,99.96
2018-04-06T00:28:29.282Z,99.96
2018-04-06T00:29:29.008Z,99.99
2018-04-06T00:30:29.766Z,99.99
2018-04-06T00:31:29.510Z,99.99
2018-04-06T00:32:30.021Z,99.99
2018-04-06T00:33:30.043Z,99.99
2018-04-06T00:34:30.072Z,99.99
2018-04-06T00:35:30.097Z,99.99
2018-04-06T00:36:30.114Z,99.99
2018-04-06T00:37:30.330Z,99.99
2018-04-06T00:38:30.370Z,99.99
2018-04-06T00:39:30.108Z,99.99
2018-04-06T00:40:30.413Z,99.99
2018-04-06T00:41:30.436Z,99.99
2018-04-06T00:42:30.468Z,99.99
2018-04-06T00:43:30.686Z,99.99
2018-04-06T00:44:30.710Z,99.99
2018-04-06T00:45:30.732Z,99.99
2018-04-06T00:46:30.782Z,99.99
2018-04-06T00:47:30.849Z,99.99
2018-04-06T00:48:30.806Z,99.99
2018-04-06T00:49:31.053Z,99.99
2018-04-06T00:50:31.090Z,99.99
2018-04-06T00:51:31.117Z,99.99
2018-04-06T00:52:31.138Z,99.99
2018-04-06T00:53:31.163Z,99.99
2018-04-06T00:54:30.904Z,99.99
2018-04-06T00:55:30.943Z,99.99
2018-04-06T00:56:31.234Z,99.99
2018-04-06T00:57:31.267Z,99.99
2018-04-06T00:58:31.499Z,99.99
2018-04-06T00:59:31.311Z,99.99
2018-04-06T01:00:31.524Z,99.99
2018-04-06T01:01:31.655Z,99.99
2018-04-06T01:02:31.812Z,99.99
2018-04-06T01:03:31.548Z,99.99
2018-04-06T01:04:31.995Z,99.99
2018-04-06T01:05:32.140Z,99.99
2018-04-06T01:06:32.515Z,99.99
2018-04-06T01:07:32.527Z,99.99
2018-04-06T01:08:32.665Z,99.99
2018-04-06T01:09:32.809Z,99.99
2018-04-06T01:10:32.546Z,99.99
2018-04-06T01:11:33.201Z,99.99
2018-04-06T01:12:33.223Z,99.99
2018-04-06T01:13:33.247Z,99.99
2018-04-06T01:14:33.284Z,99.99
2018-04-06T01:15:33.300Z,99.99
2018-04-06T01:16:33.328Z,99.99
2018-04-06T01:17:33.475Z,99.99
2018-04-06T01:18:33.503Z,99.99
2018-04-06T01:19:33.917Z,99.99
2018-04-06T01:20:34.041Z,99.99
2018-04-06T01:21:34.418Z,99.99
2018-04-06T01:22:34.438Z,99.99
2018-04-06T01:23:34.755Z,99.99
2018-04-06T01:24:35.139Z,99.99
2018-04-06T01:25:35.168Z,99.99
2018-04-06T01:26:35.196Z,99.99
2018-04-06T01:27:35.579Z,99.99
2018-04-06T01:28:35.981Z,99.99
2018-04-06T01:29:36.104Z,99.99
2018-04-06T01:30:36.489Z,99.99
2018-04-06T01:31:36.518Z,99.99
2018-04-06T01:32:36.674Z,99.99
2018-04-06T01:33:36.689Z,99.99
2018-04-06T01:34:36.815Z,99.99
2018-04-06T01:35:37.122Z,99.99
2018-04-06T01:36:37.511Z,99.99
2018-04-06T01:37:37.386Z,99.99
2018-04-06T01:38:37.791Z,99.99
2018-04-06T01:39:37.537Z,99.99
2018-04-06T01:40:37.932Z,99.99
2018-04-06T01:41:37.933Z,99.99
2018-04-06T01:42:37.777Z,99.99
2018-04-06T01:43:38.085Z,99.99
2018-04-06T01:44:38.491Z,99.99
2018-04-06T01:45:38.607Z,99.99
2018-04-06T01:46:39.001Z,99.99
2018-04-06T01:47:39.413Z,99.99
2018-04-06T01:48:39.796Z,99.99
2018-04-06T01:49:39.822Z,99.99
2018-04-06T01:50:39.563Z,99.99
2018-04-06T01:51:39.955Z,99.99
2018-04-06T01:52:39.836Z,99.99
2018-04-06T01:53:40.135Z,99.99
2018-04-06T01:54:40.546Z,99.99
2018-04-06T01:55:40.564Z,99.99
2018-04-06T01:56:40.708Z,99.99
2018-04-06T01:57:41.111Z,99.99
2018-04-06T01:58:41.514Z,99.99
2018-04-06T01:59:41.925Z,99.99
2018-04-06T02:00:42.069Z,99.99
2018-04-06T02:01:42.587Z,99.99
2018-04-06T02:02:42.598Z,99.99
2018-04-06T02:03:43.121Z,99.99
2018-04-06T02:04:42.870Z,99.99
2018-04-06T02:05:43.375Z,99.99
2018-04-06T02:06:43.284Z,99.99
2018-04-06T02:07:43.588Z,99.99
2018-04-06T02:08:43.321Z,99.99
2018-04-06T02:09:43.354Z,99.99
2018-04-06T02:10:43.817Z,99.99
2018-04-06T02:11:44.277Z,99.99
2018-04-06T02:12:44.737Z,99.99
2018-04-06T02:13:44.637Z,99.99
2018-04-06T02:14:45.097Z,99.99
2018-04-06T02:15:45.388Z,99.99
2018-04-06T02:16:45.894Z,99.99
2018-04-06T02:17:45.596Z,99.99
2018-04-06T02:18:46.059Z,99.99
2018-04-06T02:19:46.373Z,99.99
2018-04-06T02:20:46.117Z,99.99
2018-04-06T02:21:46.414Z,99.99
2018-04-06T02:22:46.852Z,99.99
2018-04-06T02:23:47.019Z,99.99
2018-04-06T02:24:47.377Z,99.99
2018-04-06T02:25:47.366Z,99.99
2018-04-06T02:26:47.800Z,99.99
2018-04-06T02:27:47.829Z,99.99
2018-04-06T02:28:48.019Z,99.99
2018-04-06T02:29:48.183Z,99.99
2018-04-06T02:30:48.908Z,99.99
2018-04-06T02:31:49.095Z,99.99
2018-04-06T02:32:49.118Z,99.99
2018-04-06T02:33:49.425Z,99.99
2018-04-06T02:34:49.862Z,99.99
2018-04-06T02:35:50.314Z,99.99
2018-04-06T02:36:50.067Z,99.99
2018-04-06T02:37:50.564Z,99.99
2018-04-06T02:38:50.586Z,99.99
2018-04-06T02:39:50.332Z,99.99
2018-04-06T02:40:51.063Z,99.99
2018-04-06T02:41:51.535Z,99.99
2018-04-06T02:42:51.440Z,99.99
2018-04-06T02:43:51.461Z,99.99
2018-04-06T02:44:51.930Z,99.99
2018-04-06T02:45:52.171Z,99.99
2018-04-06T02:46:52.625Z,99.99
2018-04-06T02:47:52.818Z,99.99
2018-04-06T02:48:52.840Z,99.99
2018-04-06T02:49:52.871Z,99.99
2018-04-06T02:50:52.880Z,99.99
2018-04-06T02:51:53.349Z,99.99
2018-04-06T02:52:53.090Z,99.99
2018-04-06T02:53:53.828Z,99.99
2018-04-06T02:54:53.745Z,99.99
2018-04-06T02:55:54.056Z,99.99
2018-04-06T02:56:54.092Z,99.99
2018-04-06T02:57:54.514Z,99.99
2018-04-06T02:58:54.476Z,99.99
2018-04-06T02:59:54.784Z,99.99
2018-04-06T03:00:54.840Z,99.99
2018-04-06T03:01:54.891Z,99.99
2018-04-06T03:02:54.921Z,99.99
2018-04-06T03:03:54.935Z,99.99
2018-04-06T03:04:55.232Z,99.99
2018-04-06T03:05:55.341Z,99.99
2018-04-06T03:06:55.984Z,99.99
2018-04-06T03:07:55.874Z,99.99
2018-04-06T03:08:56.179Z,99.99
2018-04-06T03:09:56.228Z,99.99
2018-04-06T03:10:56.288Z,99.99
2018-04-06T03:11:56.635Z,99.99
2018-04-06T03:12:56.337Z,99.99
2018-04-06T03:13:57.167Z,99.99
2018-04-06T03:14:56.981Z,99.99
2018-04-06T03:15:57.235Z,99.99
2018-04-06T03:16:57.269Z,99.99
2018-04-06T03:17:57.012Z,99.99
2018-04-06T03:18:57.054Z,99.99
2018-04-06T03:19:57.148Z,99.99
2018-04-06T03:20:57.198Z,99.99
2018-04-06T03:21:57.483Z,99.99
2018-04-06T03:22:57.857Z,99.99
2018-04-06T03:23:58.270Z,99.99
2018-04-06T03:24:58.611Z,99.99
2018-04-06T03:25:58.982Z,99.99
2018-04-06T03:26:58.836Z,99.99
2018-04-06T03:27:58.966Z,99.99
2018-04-06T03:28:58.733Z,99.99
2018-04-06T03:29:58.294Z,99.99
2018-04-06T03:30:58.314Z,99.99
2018-04-06T03:31:58.251Z,99.99
2018-04-06T03:32:58.516Z,99.99
2018-04-06T03:33:58.896Z,99.99
2018-04-06T03:34:58.913Z,99.99
2018-04-06T03:35:59.004Z,99.99
2018-04-06T03:36:58.686Z,99.99
2018-04-06T03:37:58.987Z,99.99
2018-04-06T03:38:58.729Z,99.99
2018-04-06T03:39:58.764Z,99.99
2018-04-06T03:40:59.302Z,99.99
2018-04-06T03:41:59.420Z,99.99
2018-04-06T03:42:59.339Z,99.99
2018-04-06T03:43:59.749Z,99.99
2018-04-06T03:44:59.845Z,99.99
2018-04-06T03:45:59.882Z,99.99
2018-04-06T03:46:59.978Z,99.99
2018-04-06T03:48:00.028Z,99.99
2018-04-06T03:49:00.502Z,99.99
2018-04-06T03:50:00.988Z,99.99
2018-04-06T03:51:00.638Z,99.99
2018-04-06T03:52:01.046Z,99.99
2018-04-06T03:53:01.175Z,99.99
2018-04-06T03:54:01.312Z,99.99
2018-04-06T03:55:01.512Z,99.99
2018-04-06T03:56:01.545Z,99.99
2018-04-06T03:57:01.824Z,99.99
2018-04-06T03:58:01.708Z,99.99
2018-04-06T03:59:01.738Z,99.99
2018-04-06T04:00:15.170Z,99.99
2018-04-06T04:01:02.431Z,99.99
2018-04-06T04:02:02.468Z,99.99
2018-04-06T04:03:02.615Z,99.99
2018-04-06T04:04:02.913Z,99.99
2018-04-06T04:05:03.208Z,99.99
2018-04-06T04:06:03.109Z,99.99
2018-04-06T04:07:03.283Z,99.99
2018-04-06T04:08:03.406Z,99.99
2018-04-06T04:09:03.627Z,99.99
2018-04-06T04:10:03.312Z,99.99
2018-04-06T04:11:03.447Z,99.99
2018-04-06T04:12:03.571Z,99.99
2018-04-06T04:13:04.026Z,99.99
2018-04-06T04:14:04.184Z,99.99
2018-04-06T04:15:04.019Z,99.99
2018-04-06T04:16:04.059Z,99.99
2018-04-06T04:17:04.333Z,99.99
2018-04-06T04:18:04.348Z,99.99
2018-04-06T04:19:04.312Z,99.99
2018-04-06T04:20:04.430Z,99.99
2018-04-06T04:21:04.428Z,99.99
2018-04-06T04:22:04.685Z,99.99
2018-04-06T04:23:04.420Z,99.99
2018-04-06T04:24:04.894Z,99.99
2018-04-06T04:25:05.000Z,99.99
2018-04-06T04:26:04.947Z,99.99
2018-04-06T04:27:04.982Z,99.99
2018-04-06T04:28:04.885Z,99.99
2018-04-06T04:29:05.187Z,99.99
2018-04-06T04:30:04.971Z,99.99
2018-04-06T04:31:05.239Z,99.99
2018-04-06T04:32:05.462Z,99.99
2018-04-06T04:33:05.476Z,99.99
2018-04-06T04:34:05.498Z,99.99
2018-04-06T04:35:05.638Z,99.99
2018-04-06T04:36:05.662Z,99.99
2018-04-06T04:37:05.683Z,99.99
2018-04-06T04:38:05.545Z,99.99
2018-04-06T04:39:05.574Z,99.99
2018-04-06T04:40:06.137Z,99.99
2018-04-06T04:41:06.357Z,99.99
2018-04-06T04:42:06.211Z,99.99
2018-04-06T04:43:06.199Z,99.99
2018-04-06T04:44:06.240Z,99.99
2018-04-06T04:45:06.420Z,99.99
2018-04-06T04:46:06.537Z,99.99
2018-04-06T04:47:06.887Z,99.99
2018-04-06T04:48:07.100Z,99.99
2018-04-06T04:49:07.148Z,99.99
2018-04-06T04:50:07.236Z,99.99
2018-04-06T04:51:07.730Z,99.99
2018-04-06T04:52:07.742Z,99.99
2018-04-06T04:53:07.753Z,99.99
2018-04-06T04:54:08.199Z,99.99
2018-04-06T04:55:08.346Z,99.99
2018-04-06T04:56:08.608Z,99.99
2018-04-06T04:57:08.991Z,99.99
2018-04-06T04:58:09.120Z,99.99
2018-04-06T04:59:09.423Z,99.99
2018-04-06T05:00:09.402Z,99.99
2018-04-06T05:01:09.202Z,99.99
2018-04-06T05:02:09.272Z,99.99
2018-04-06T05:03:09.251Z,99.99
2018-04-06T05:04:09.611Z,99.99
2018-04-06T05:05:09.439Z,99.99
2018-04-06T05:06:09.357Z,99.99
2018-04-06T05:07:09.752Z,99.99
2018-04-06T05:08:09.612Z,99.99
2018-04-06T05:09:09.750Z,99.99
2018-04-06T05:10:10.399Z,99.99
2018-04-06T05:11:10.411Z,99.99
2018-04-06T05:12:10.783Z,99.99
2018-04-06T05:13:10.850Z,99.99
2018-04-06T05:14:10.550Z,99.99
2018-04-06T05:15:11.277Z,99.99
2018-04-06T05:16:12.133Z,99.99
2018-04-06T05:17:12.617Z,99.99
2018-04-06T05:18:12.155Z,99.99
2018-04-06T05:19:12.428Z,99.99
2018-04-06T05:20:12.024Z,99.99
2018-04-06T05:21:11.762Z,99.99
2018-04-06T05:22:11.852Z,99.99
2018-04-06T05:23:12.635Z,99.99
2018-04-06T05:24:12.556Z,99.99
2018-04-06T05:25:12.451Z,99.99
2018-04-06T05:26:12.915Z,99.99
2018-04-06T05:27:12.474Z,99.99
2018-04-06T05:28:13.133Z,99.99
2018-04-06T05:29:13.303Z,99.99
2018-04-06T05:30:13.293Z,99.99
2018-04-06T05:31:13.325Z,99.99
2018-04-06T05:32:13.342Z,99.99
2018-04-06T05:33:13.391Z,99.99
2018-04-06T05:34:13.102Z,99.99
2018-04-06T05:35:13.476Z,99.99
2018-04-06T05:36:13.295Z,99.99
2018-04-06T05:37:13.466Z,99.99
2018-04-06T05:38:13.485Z,99.99
2018-04-06T05:39:13.788Z,99.99
2018-04-06T05:40:13.802Z,99.99
2018-04-06T05:41:13.564Z,99.99
2018-04-06T05:42:13.969Z,99.99
2018-04-06T05:43:14.361Z,99.99
2018-04-06T05:44:14.479Z,99.99
2018-04-06T05:45:14.514Z,99.99
2018-04-06T05:46:14.526Z,99.99
2018-04-06T05:47:14.549Z,99.99
2018-04-06T05:48:14.305Z,98.59
2018-04-06T05:49:14.977Z,94.42
2018-04-06T05:50:15.108Z,91.19
2018-04-06T05:51:15.225Z,88.95
2018-04-06T05:52:15.506Z,87.76
2018-04-06T05:53:15.908Z,84.95
2018-04-06T05:54:15.923Z,82.7
2018-04-06T05:55:16.439Z,81.23
2018-04-06T05:56:16.349Z,80.08
2018-04-06T05:57:16.387Z,79.07
2018-04-06T05:58:16.731Z,78.69
2018-04-06T05:59:16.392Z,76.48
2018-04-06T06:00:16.737Z,76.39
2018-04-06T06:01:16.478Z,74.27
2018-04-06T06:02:17.030Z,70.87
2018-04-06T06:03:17.326Z,69.15
2018-04-06T06:04:17.056Z,68.48
2018-04-06T06:05:17.665Z,68.48
2018-04-06T06:06:17.404Z,68.1
2018-04-06T06:07:17.418Z,66.7
2018-04-06T06:08:17.464Z,66.22
2018-04-06T06:09:17.494Z,65.84
2018-04-06T06:10:17.737Z,65.01
2018-04-06T06:11:17.768Z,64.15
2018-04-06T06:12:18.004Z,63.1
2018-04-06T06:13:18.010Z,63.1
2018-04-06T06:14:17.760Z,63.67
2018-04-06T06:15:18.119Z,63.32
2018-04-06T06:16:18.206Z,62.2
2018-04-06T06:17:17.861Z,61.05
2018-04-06T06:18:18.488Z,61.44
2018-04-06T06:19:17.923Z,59.94
2018-04-06T06:20:17.945Z,59.55
2018-04-06T06:21:18.301Z,60
2018-04-06T06:22:18.326Z,61.69
2018-04-06T06:23:18.095Z,61.34
2018-04-06T06:24:18.347Z,61.25
2018-04-06T06:25:18.878Z,59.84
2018-04-06T06:26:18.846Z,58.91
2018-04-06T06:27:19.176Z,58.65
2018-04-06T06:28:19.404Z,56.6
2018-04-06T06:29:19.439Z,54.9
2018-04-06T06:30:19.497Z,53.46
2018-04-06T06:31:19.649Z,52.91
2018-04-06T06:32:19.455Z,53.08
2018-04-06T06:33:19.591Z,52.89
2018-04-06T06:34:19.357Z,53.17
2018-04-06T06:35:19.729Z,53.56
2018-04-06T06:36:19.824Z,53.58
2018-04-06T06:37:19.728Z,52.55
2018-04-06T06:38:19.745Z,51.5
2018-04-06T06:39:19.496Z,50.73
2018-04-06T06:40:19.985Z,50.56
2018-04-06T06:41:19.750Z,50.44
2018-04-06T06:42:20.285Z,50.18
2018-04-06T06:43:20.781Z,50.63
2018-04-06T06:44:21.083Z,50.85
2018-04-06T06:45:20.920Z,50.56
2018-04-06T06:46:21.231Z,49.27
2018-04-06T06:47:21.271Z,48.49
2018-04-06T06:48:21.017Z,48.59
2018-04-06T06:49:21.326Z,49.55
2018-04-06T06:50:21.380Z,48.33
2018-04-06T06:51:21.400Z,47.12
2018-04-06T06:52:21.149Z,46.25
2018-04-06T06:53:21.478Z,46.25
2018-04-06T06:54:21.602Z,46.95
2018-04-06T06:55:21.525Z,45.92
2018-04-06T06:56:21.551Z,45.04
2018-04-06T06:57:21.304Z,44.95
2018-04-06T06:58:21.332Z,44.59
2018-04-06T06:59:21.857Z,44.37
2018-04-06T07:00:25.402Z,44.66
2018-04-06T07:01:25.692Z,44.46
2018-04-06T07:02:25.456Z,44.27
2018-04-06T07:03:25.494Z,44.81
2018-04-06T07:04:25.550Z,45.21
2018-04-06T07:05:25.842Z,44.64
2018-04-06T07:06:25.862Z,44.56
2018-04-06T07:07:25.887Z,44.87
2018-04-06T07:08:26.418Z,45.01
2018-04-06T07:09:26.330Z,43.9
2018-04-06T07:10:26.612Z,41.91
2018-04-06T07:11:26.800Z,40.84
2018-04-06T07:12:26.774Z,41.06
2018-04-06T07:13:26.766Z,39.7
2018-04-06T07:14:26.781Z,39.41
2018-04-06T07:15:26.831Z,40.48
2018-04-06T07:16:26.583Z,39.62
2018-04-06T07:17:26.885Z,39.06
2018-04-06T07:18:26.930Z,38.19
2018-04-06T07:19:26.669Z,39.26
2018-04-06T07:20:27.232Z,38.4
2018-04-06T07:21:27.231Z,39.36
2018-04-06T07:22:27.287Z,38.4
2018-04-06T07:23:27.310Z,39.28
2018-04-06T07:24:27.342Z,39.2
2018-04-06T07:25:27.093Z,38.54
2018-04-06T07:26:27.132Z,36.15
2018-04-06T07:27:27.870Z,36.81
2018-04-06T07:28:27.727Z,35.96
2018-04-06T07:29:27.752Z,35.96
2018-04-06T07:30:27.530Z,36.11
2018-04-06T07:31:28.188Z,36.69
2018-04-06T07:32:27.970Z,36.5
2018-04-06T07:33:28.376Z,36.68
2018-04-06T07:34:28.134Z,36.87
2018-04-06T07:35:28.785Z,36.56
2018-04-06T07:36:29.081Z,37.15
2018-04-06T07:37:29.133Z,37.13
2018-04-06T07:38:28.932Z,37.05
2018-04-06T07:39:28.979Z,36.85
2018-04-06T07:40:28.952Z,37.92
2018-04-06T07:41:29.395Z,38.02
2018-04-06T07:42:29.440Z,36.19
2018-04-06T07:43:29.292Z,35.63
2018-04-06T07:44:29.633Z,35.92
2018-04-06T07:45:29.257Z,36.58
2018-04-06T07:46:30.171Z,35.94
2018-04-06T07:47:29.941Z,36.05
2018-04-06T07:48:30.182Z,35.89
2018-04-06T07:49:30.171Z,34.74
2018-04-06T07:50:30.205Z,34.17
2018-04-06T07:51:30.627Z,33.69
2018-04-06T07:52:30.071Z,32.91
2018-04-06T07:53:29.709Z,33.58
2018-04-06T07:54:29.747Z,33.95
2018-04-06T07:55:30.160Z,34.84
2018-04-06T07:56:30.134Z,33.9
2018-04-06T07:57:29.946Z,32.57
2018-04-06T07:58:30.590Z,31.59
2018-04-06T07:59:30.619Z,32.42
2018-04-06T08:00:30.699Z,32.91
2018-04-06T08:01:30.673Z,33.11
2018-04-06T08:02:30.433Z,32.91
2018-04-06T08:03:30.479Z,33.56
2018-04-06T08:04:30.550Z,33.65
2018-04-06T08:05:30.542Z,33.75
2018-04-06T08:06:30.928Z,33.49
2018-04-06T08:07:30.892Z,33.12
2018-04-06T08:08:30.687Z,33.25
2018-04-06T08:09:30.997Z,32.99
2018-04-06T08:10:31.102Z,32.14
2018-04-06T08:11:31.148Z,31.96
2018-04-06T08:12:31.488Z,31.78
2018-04-06T08:13:31.569Z,30.91
2018-04-06T08:14:31.589Z,29.46
2018-04-06T08:15:31.919Z,28.96
2018-04-06T08:16:32.213Z,28.86
2018-04-06T08:17:32.605Z,28.96
2018-04-06T08:18:32.526Z,27.78
2018-04-06T08:19:32.565Z,29.6
2018-04-06T08:20:32.394Z,29.5
2018-04-06T08:21:32.418Z,29.99
2018-04-06T08:22:32.473Z,30.1
2018-04-06T08:23:32.401Z,29.61
2018-04-06T08:24:32.319Z,29.22
2018-04-06T08:25:33.022Z,29.5
2018-04-06T08:26:33.028Z,29.8
2018-04-06T08:27:32.989Z,29.5
2018-04-06T08:28:32.683Z,28.93
2018-04-06T08:29:32.980Z,28.83
2018-04-06T08:30:33.435Z,29.11
2018-04-06T08:31:32.913Z,28.23
2018-04-06T08:32:33.328Z,28.11
2018-04-06T08:33:33.379Z,29.35
2018-04-06T08:34:33.190Z,29.15
2018-04-06T08:35:33.497Z,29.24
2018-04-06T08:36:33.533Z,30.42
2018-04-06T08:37:33.610Z,29.77
2018-04-06T08:38:33.412Z,29.9
2018-04-06T08:39:33.681Z,29.13
2018-04-06T08:40:33.670Z,28.16
2018-04-06T08:41:33.555Z,28.38
2018-04-06T08:42:34.161Z,27.98
2018-04-06T08:43:34.244Z,28.58
2018-04-06T08:44:34.515Z,28.11
2018-04-06T08:45:34.788Z,28.03
2018-04-06T08:46:34.539Z,27.19
2018-04-06T08:47:34.779Z,26.43
2018-04-06T08:48:35.188Z,25.44
2018-04-06T08:49:35.186Z,26.23
2018-04-06T08:50:34.968Z,26.14
2018-04-06T08:51:35.284Z,26.25
2018-04-06T08:52:35.301Z,26.15
2018-04-06T08:53:35.351Z,25.46
2018-04-06T08:54:35.110Z,25.67
2018-04-06T08:55:35.841Z,24.86
2018-04-06T08:56:36.266Z,25.24
2018-04-06T08:57:35.641Z,25.61
2018-04-06T08:58:36.201Z,26.1
2018-04-06T08:59:36.706Z,26.31
2018-04-06T09:00:36.565Z,25.33
2018-04-06T09:01:36.496Z,25.9
2018-04-06T09:02:36.878Z,25.32
2018-04-06T09:03:36.906Z,25.6
2018-04-06T09:04:36.933Z,26.09
2018-04-06T09:05:36.976Z,26.79
2018-04-06T09:06:36.781Z,26.21
2018-04-06T09:07:37.076Z,26.4
2018-04-06T09:08:37.178Z,25.82
2018-04-06T09:09:37.586Z,25.62
2018-04-06T09:10:37.274Z,26.79
2018-04-06T09:11:37.652Z,26.41
2018-04-06T09:12:37.750Z,26.03
2018-04-06T09:13:38.135Z,25.37
2018-04-06T09:14:38.299Z,25.94
2018-04-06T09:15:38.322Z,25.07
2018-04-06T09:16:37.817Z,25.26
2018-04-06T09:17:38.119Z,25.13
2018-04-06T09:18:38.209Z,25.9
2018-04-06T09:19:38.194Z,26.5
2018-04-06T09:20:38.676Z,26.87
2018-04-06T09:21:38.762Z,26.58
2018-04-06T09:22:38.457Z,25.82
2018-04-06T09:23:38.980Z,25.23
2018-04-06T09:24:39.234Z,25.32
2018-04-06T09:25:39.064Z,26.18
2018-04-06T09:26:39.154Z,25.71
2018-04-06T09:27:39.125Z,25.7
2018-04-06T09:28:38.906Z,26.56
2018-04-06T09:29:39.449Z,25.7
2018-04-06T09:30:40.047Z,26.18
2018-04-06T09:31:40.007Z,25.9
2018-04-06T09:32:39.973Z,25.92
2018-04-06T09:33:40.247Z,25.63
2018-04-06T09:34:40.526Z,24.96
2018-04-06T09:35:40.514Z,25.44
2018-04-06T09:36:40.248Z,25.42
2018-04-06T09:37:40.917Z,26.67
2018-04-06T09:38:40.662Z,25.5
2018-04-06T09:39:40.836Z,25.4
2018-04-06T09:40:40.516Z,25.42
2018-04-06T09:41:40.341Z,26.1
2018-04-06T09:42:40.939Z,25.54
2018-04-06T09:43:40.972Z,25.65
2018-04-06T09:44:40.960Z,24.68
2018-04-06T09:45:40.988Z,24.69
2018-04-06T09:46:41.059Z,24.77
2018-04-06T09:47:40.787Z,24.87
2018-04-06T09:48:40.908Z,24.58
2018-04-06T09:49:41.283Z,25.16
2018-04-06T09:50:41.504Z,24.86
2018-04-06T09:51:41.546Z,25.16
2018-04-06T09:52:41.576Z,25.45
2018-04-06T09:53:41.335Z,24.38
2018-04-06T09:54:41.735Z,25.45
2018-04-06T09:55:41.758Z,25.45
2018-04-06T09:56:42.193Z,25.17
2018-04-06T09:57:42.097Z,26.04
2018-04-06T09:58:42.399Z,25.94
2018-04-06T09:59:42.426Z,26.14
2018-04-06T10:00:42.428Z,25.56
2018-04-06T10:01:42.526Z,25.07
2018-04-06T10:02:42.713Z,25.08
2018-04-06T10:03:42.476Z,24.48
2018-04-06T10:04:42.773Z,24.85
2018-04-06T10:05:43.225Z,25.61
2018-04-06T10:06:43.275Z,25.21
2018-04-06T10:07:43.459Z,25.2
2018-04-06T10:08:44.479Z,25.11
2018-04-06T10:09:44.211Z,25.6
2018-04-06T10:10:43.963Z,26
2018-04-06T10:11:43.993Z,25.23
2018-04-06T10:12:44.578Z,24.95
2018-04-06T10:13:44.721Z,24.96
2018-04-06T10:14:44.767Z,23.6
2018-04-06T10:15:44.805Z,23.95
2018-04-06T10:16:44.842Z,25.02
2018-04-06T10:17:45.275Z,25.12
2018-04-06T10:18:45.272Z,24.42
2018-04-06T10:19:45.311Z,25.39
2018-04-06T10:20:45.479Z,26.06
2018-04-06T10:21:45.517Z,26.15
2018-04-06T10:22:45.275Z,26.15
2018-04-06T10:23:45.580Z,25.27
2018-04-06T10:24:45.420Z,24.86
2018-04-06T10:25:45.819Z,25.54
2018-04-06T10:26:46.199Z,26.03
2018-04-06T10:27:46.344Z,26.61
2018-04-06T10:28:46.365Z,25.45
2018-04-06T10:29:46.800Z,26.33
2018-04-06T10:30:46.913Z,26.14
2018-04-06T10:31:46.681Z,26.25
2018-04-06T10:32:47.054Z,25.95
2018-04-06T10:33:47.202Z,26.25
2018-04-06T10:34:47.619Z,25.85
2018-04-06T10:35:47.797Z,25.27
2018-04-06T10:36:48.225Z,25.24
2018-04-06T10:37:48.256Z,25.72
2018-04-06T10:38:48.293Z,25.99
2018-04-06T10:39:48.697Z,26.45
2018-04-06T10:40:48.793Z,26.35
2018-04-06T10:41:48.577Z,27.22
2018-04-06T10:42:49.323Z,27.8
2018-04-06T10:43:49.279Z,28.18
2018-04-06T10:44:48.943Z,28.28
2018-04-06T10:45:50.019Z,27.69
2018-04-06T10:46:49.938Z,27.98
2018-04-06T10:47:49.950Z,27.69
2018-04-06T10:48:50.144Z,27.48
2018-04-06T10:49:50.020Z,27.28
2018-04-06T10:50:50.062Z,27.47
2018-04-06T10:51:50.471Z,27.05
2018-04-06T10:52:50.652Z,27.92
2018-04-06T10:53:50.606Z,29.08
2018-04-06T10:54:51.403Z,29.86
2018-04-06T10:55:51.379Z,28.9
2018-04-06T10:56:51.578Z,28.61
2018-04-06T10:57:51.812Z,29.39
2018-04-06T10:58:51.938Z,28.79
2018-04-06T10:59:52.061Z,27.92
2018-04-06T11:00:51.986Z,28.29
2018-04-06T11:01:52.686Z,28.93
2018-04-06T11:02:52.703Z,29.68
2018-04-06T11:03:53.102Z,31.02
2018-04-06T11:04:53.470Z,31.59
2018-04-06T11:05:53.505Z,32.75
2018-04-06T11:06:53.673Z,32.76
2018-04-06T11:07:53.828Z,33.04
2018-04-06T11:08:54.316Z,33.31
2018-04-06T11:09:54.116Z,33.29
2018-04-06T11:10:54.093Z,32.79
2018-04-06T11:11:54.277Z,33.17
2018-04-06T11:12:54.698Z,34
2018-04-06T11:13:55.082Z,34.87
2018-04-06T11:14:55.073Z,35.55
2018-04-06T11:15:55.172Z,34.39
2018-04-06T11:16:55.139Z,34.97
2018-04-06T11:17:55.571Z,36.01
2018-04-06T11:18:55.603Z,36.88
2018-04-06T11:19:55.629Z,35.92
2018-04-06T11:20:55.749Z,35.44
2018-04-06T11:21:55.924Z,36.19
2018-04-06T11:22:56.249Z,37.63
2018-04-06T11:23:56.014Z,38.2
2018-04-06T11:24:56.320Z,38.95
2018-04-06T11:25:56.490Z,38.74
2018-04-06T11:26:56.934Z,39.22
2018-04-06T11:27:57.328Z,39.61
2018-04-06T11:28:57.718Z,40.07
2018-04-06T11:29:57.759Z,39.09
2018-04-06T11:30:57.792Z,39.56
2018-04-06T11:31:57.991Z,38.68
2018-04-06T11:32:58.019Z,39.81
2018-04-06T11:33:58.071Z,40.97
2018-04-06T11:34:58.075Z,42.39
2018-04-06T11:35:58.122Z,42.49
2018-04-06T11:36:58.139Z,42.77
2018-04-06T11:37:58.359Z,42.77
2018-04-06T11:38:58.374Z,43.35
2018-04-06T11:39:59.277Z,43.16
2018-04-06T11:40:58.978Z,41.22
2018-04-06T11:41:59.524Z,43.14
2018-04-06T11:42:59.513Z,44.17
2018-04-06T11:43:59.547Z,44.75
2018-04-06T11:44:59.921Z,45.5
2018-04-06T11:45:59.603Z,45.98
2018-04-06T11:46:59.698Z,45.88
2018-04-06T11:48:00.043Z,45.76
2018-04-06T11:48:59.841Z,46.24
2018-04-06T11:50:00.099Z,45.64
2018-04-06T11:51:00.113Z,46.03
2018-04-06T11:52:00.225Z,46.89
2018-04-06T11:53:00.250Z,46.67
2018-04-06T11:54:00.551Z,47.89
2018-04-06T11:55:00.627Z,47.58
2018-04-06T11:56:00.927Z,48.9
2018-04-06T11:57:00.668Z,49.29
2018-04-06T11:58:02.191Z,50.52
2018-04-06T11:59:01.620Z,50.89
2018-04-06T12:01:01.375Z,51.34
2018-04-06T12:02:01.669Z,52.2
2018-04-06T12:03:01.603Z,53.16
2018-04-06T12:04:01.896Z,52.39
2018-04-06T12:05:02.045Z,52.48
2018-04-06T12:06:01.794Z,51.79
2018-04-06T12:07:02.079Z,53.51
2018-04-06T12:08:02.178Z,54.37
2018-04-06T12:09:02.604Z,55.32
2018-04-06T12:10:02.840Z,55.13
2018-04-06T12:11:02.965Z,54.47
2018-04-06T12:12:03.642Z,53.61
2018-04-06T12:13:04.043Z,55.61
2018-04-06T12:14:04.158Z,56.16
2018-04-06T12:15:04.222Z,54.25
2018-04-06T12:16:03.872Z,53.58
2018-04-06T12:17:04.170Z,53.1
2018-04-06T12:18:04.136Z,53.86
2018-04-06T12:19:04.394Z,53.67
2018-04-06T12:20:04.458Z,53.2
2018-04-06T12:21:04.187Z,52.72
2018-04-06T12:22:04.701Z,52.43
2018-04-06T12:23:04.909Z,54.15
2018-04-06T12:24:04.919Z,55.11
2018-04-06T12:25:05.360Z,56.63
2018-04-06T12:26:05.759Z,56.54
2018-04-06T12:27:05.917Z,54.72
2018-04-06T12:28:06.093Z,53.29
2018-04-06T12:29:06.182Z,53.29
2018-04-06T12:30:06.439Z,53.29
2018-04-06T12:31:06.663Z,53.77
2018-04-06T12:32:06.885Z,53.96
2018-04-06T12:33:06.935Z,53.49
2018-04-06T12:34:06.951Z,54.63
2018-04-06T12:35:07.432Z,56.06
2018-04-06T12:36:07.855Z,54.15
2018-04-06T12:37:08.010Z,55.11
2018-04-06T12:38:08.169Z,54.15
2018-04-06T12:39:08.246Z,54.44
2018-04-06T12:40:08.633Z,54.91
2018-04-06T12:41:08.642Z,55.11
2018-04-06T12:42:08.620Z,55.4
2018-04-06T12:43:08.696Z,55.11
2018-04-06T12:44:08.660Z,54.63
2018-04-06T12:45:08.750Z,54.34
2018-04-06T12:46:08.723Z,54.13
2018-04-06T12:47:09.263Z,55.27
2018-04-06T12:48:08.768Z,54.99
2018-04-06T12:49:09.736Z,55.18
2018-04-06T12:50:09.397Z,55.46
2018-04-06T12:51:09.589Z,55.08
2018-04-06T12:52:09.519Z,54.99
2018-04-06T12:53:10.076Z,54.32
2018-04-06T12:54:09.665Z,54.79
2018-04-06T12:55:09.476Z,55.84
2018-04-06T12:56:09.766Z,56.6
2018-04-06T12:57:10.411Z,54.13